Time,TemperatureF,DewpointF,PressureIn,WindDirection,WindDirectionDegrees,WindSpeedMPH,WindSpeedGustMPH,Humidity,HourlyPrecipIn,Conditions,Clouds,dailyrainin,SoftwareType,DateUTC
2013-01-08 00:03:00,26.3,23.8,30.28,SE,129,0.0,0.0,90,0.00,CLR,FEW,0.00,WeatherDisplay:10.37,2013-01-08 06:03:00,
2013-01-08 00:08:00,26.2,23.7,30.28,SE,129,0.0,0.0,90,0.00,CLR,FEW,0.00,WeatherDisplay:10.37,2013-01-08 06:08:00,
2013-01-08 00:13:00,26.1,23.6,30.28,SE,129,0.0,0.0,90,0.00,CLR,FEW,0.00,WeatherDisplay:10.37,2013-01-08 06:13:00,
2013-01-08 00:18:00,26.0,23.5,30.28,SE,129,0.0,0.0,90,0.00,CLR,FEW,0.00,WeatherDisplay:10.37,2013-01-08 06:18:00,
2013-01-08 00:23:00,25.8,23.3,30.28,SE,129,0.0,0.0,90,0.00,CLR,FEW,0.00,WeatherDisplay:10.37,2013-01-08 06:23:00,
2013-01-08 00:28:00,25.6,23.3,30.27,SE,129,0.0,0.0,91,0.00,CLR,FEW,0.00,WeatherDisplay:10.37,2013-01-08 06:28:00,
2013-01-08 00:33:00,25.4,22.9,30.27,SE,129,0.0,0.0,90,0.00,CLR,FEW,0.00,WeatherDisplay:10.37,2013-01-08 06:33:00,
2013-01-08 00:38:00,25.2,22.9,30.27,SE,129,1.1,0.0,91,0.00,CLR,FEW,0.00,WeatherDisplay:10.37,2013-01-08 06:38:00,
2013-01-08 00:43:00,25.2,22.9,30.27,SE,129,0.0,0.0,91,0.00,CLR,FEW,0.00,WeatherDisplay:10.37,2013-01-08 06:43:00,
2013-01-08 00:48:00,25.2,22.9,30.27,SE,129,0.0,0.0,91,0.00,CLR,FEW,0.00,WeatherDisplay:10.37,2013-01-08 06:48:00,
2013-01-08 00:53:00,25.2,22.9,30.27,SE,129,0.0,0.0,91,0.00,CLR,FEW,0.00,WeatherDisplay:10.37,2013-01-08 06:53:00,
2013-01-08 00:58:00,25.2,22.9,30.27,SE,129,0.0,0.0,91,0.00,CLR,FEW,0.00,WeatherDisplay:10.37,2013-01-08 06:58:00,
2013-01-08 01:03:00,25.2,22.9,30.27,SE,129,0.0,0.0,91,0.00,CLR,FEW,0.00,WeatherDisplay:10.37,2013-01-08 07:03:00,
2013-01-08 01:08:00,25.3,23.3,30.27,SE,129,0.0,0.0,92,0.00,CLR,FEW,0.00,WeatherDisplay:10.37,2013-01-08 07:08:00,
2013-01-08 01:13:00,25.3,23.3,30.27,SE,129,0.0,0.0,92,0.00,CLR,FEW,0.00,WeatherDisplay:10.37,2013-01-08 07:13:00,
2013-01-08 01:18:00,25.2,22.9,30.28,SE,129,0.0,0.0,91,0.00,CLR,FEW,0.00,WeatherDisplay:10.37,2013-01-08 07:18:00,
2013-01-08 01:23:00,25.2,23.2,30.28,SE,129,0.0,0.0,92,0.00,CLR,FEW,0.00,WeatherDisplay:10.37,2013-01-08 07:23:00,
2013-01-08 01:28:00,25.4,23.7,30.27,SE,129,0.0,0.0,93,0.00,CLR,FEW,0.00,WeatherDisplay:10.37,2013-01-08 07:28:00,
2013-01-08 01:33:00,25.6,23.9,30.28,SE,129,0.0,0.0,93,0.00,CLR,FEW,0.00,WeatherDisplay:10.37,2013-01-08 07:33:00,
2013-01-08 01:38:00,25.7,24.0,30.28,SE,129,0.0,0.0,93,0.00,CLR,FEW,0.00,WeatherDisplay:10.37,2013-01-08 07:38:00,
2013-01-08 01:44:00,25.7,23.7,30.28,SE,129,0.0,0.0,92,0.00,CLR,FEW,0.00,WeatherDisplay:10.37,2013-01-08 07:44:00,
2013-01-08 01:49:00,25.7,23.7,30.28,SE,129,0.0,0.0,92,0.00,CLR,FEW,0.00,WeatherDisplay:10.37,2013-01-08 07:49:00,
2013-01-08 01:54:00,25.7,23.7,30.28,SE,129,0.0,0.0,92,0.00,CLR,FEW,0.00,WeatherDisplay:10.37,2013-01-08 07:54:00,
2013-01-08 01:59:00,25.6,23.6,30.28,SE,129,0.0,0.0,92,0.00,CLR,FEW,0.00,WeatherDisplay:10.37,2013-01-08 07:59:00,
2013-01-08 02:04:00,25.6,23.6,30.28,SE,129,1.1,1.1,92,0.00,CLR,FEW,0.00,WeatherDisplay:10.37,2013-01-08 08:04:00,
2013-01-08 02:09:00,25.5,23.5,30.28,SE,129,0.0,0.0,92,0.00,CLR,FEW,0.00,WeatherDisplay:10.37,2013-01-08 08:09:00,
2013-01-08 02:14:00,25.5,23.5,30.28,SE,129,0.0,0.0,92,0.00,CLR,FEW,0.00,WeatherDisplay:10.37,2013-01-08 08:14:00,
2013-01-08 02:19:00,25.6,23.6,30.28,SE,129,0.0,0.0,92,0.00,CLR,FEW,0.00,WeatherDisplay:10.37,2013-01-08 08:19:00,
2013-01-08 02:24:00,25.6,23.6,30.28,SE,129,0.0,0.0,92,0.00,CLR,FEW,0.00,WeatherDisplay:10.37,2013-01-08 08:24:00,
2013-01-08 02:29:00,25.6,23.6,30.28,SE,129,0.0,0.0,92,0.00,CLR,FEW,0.00,WeatherDisplay:10.37,2013-01-08 08:29:00,
2013-01-08 02:34:00,25.7,23.7,30.28,SE,129,0.0,0.0,92,0.00,CLR,FEW,0.00,WeatherDisplay:10.37,2013-01-08 08:34:00,
2013-01-08 02:39:00,25.8,23.8,30.27,SE,129,0.0,0.0,92,0.00,CLR,FEW,0.00,WeatherDisplay:10.37,2013-01-08 08:39:00,
2013-01-08 02:44:00,25.8,23.8,30.27,SE,129,0.0,0.0,92,0.00,CLR,FEW,0.00,WeatherDisplay:10.37,2013-01-08 08:44:00,
2013-01-08 02:49:00,26.0,24.0,30.27,SE,129,0.0,0.0,92,0.00,CLR,FEW,0.00,WeatherDisplay:10.37,2013-01-08 08:49:00,
2013-01-08 02:54:00,26.0,24.0,30.27,SE,129,0.0,0.0,92,0.00,CLR,FEW,0.00,WeatherDisplay:10.37,2013-01-08 08:54:00,
2013-01-08 02:59:00,26.1,24.1,30.27,SE,129,0.0,0.0,92,0.00,CLR,FEW,0.00,WeatherDisplay:10.37,2013-01-08 08:59:00,
2013-01-08 03:04:00,26.1,24.1,30.27,SE,129,0.0,0.0,92,0.00,CLR,FEW,0.00,WeatherDisplay:10.37,2013-01-08 09:04:00,
2013-01-08 03:09:00,26.1,24.1,30.27,SE,129,0.0,0.0,92,0.00,CLR,FEW,0.00,WeatherDisplay:10.37,2013-01-08 09:09:00,
2013-01-08 03:14:00,26.1,24.1,30.27,SE,129,0.0,0.0,92,0.00,CLR,FEW,0.00,WeatherDisplay:10.37,2013-01-08 09:14:00,
2013-01-08 03:19:00,26.2,24.2,30.27,SE,129,0.0,0.0,92,0.00,CLR,FEW,0.00,WeatherDisplay:10.37,2013-01-08 09:19:00,
2013-01-08 03:24:00,26.2,24.2,30.27,SE,129,0.0,0.0,92,0.00,CLR,FEW,0.00,WeatherDisplay:10.37,2013-01-08 09:24:00,
2013-01-08 03:29:00,26.3,24.3,30.27,SE,129,0.0,0.0,92,0.00,CLR,FEW,0.00,WeatherDisplay:10.37,2013-01-08 09:29:00,
2013-01-08 03:34:00,26.3,24.3,30.27,SE,129,0.0,0.0,92,0.00,CLR,FEW,0.00,WeatherDisplay:10.37,2013-01-08 09:34:00,
2013-01-08 03:39:00,26.4,24.7,30.27,SE,129,0.0,0.0,93,0.00,CLR,FEW,0.00,WeatherDisplay:10.37,2013-01-08 09:39:00,
2013-01-08 03:44:00,26.5,24.5,30.27,SE,129,0.0,0.0,92,0.00,CLR,FEW,0.00,WeatherDisplay:10.37,2013-01-08 09:44:00,
2013-01-08 03:49:00,26.5,24.5,30.27,SE,129,0.0,0.0,92,0.00,CLR,FEW,0.00,WeatherDisplay:10.37,2013-01-08 09:49:00,
2013-01-08 03:54:00,26.6,24.6,30.27,SE,129,0.0,0.0,92,0.00,CLR,FEW,0.00,WeatherDisplay:10.37,2013-01-08 09:54:00,
2013-01-08 03:59:00,26.7,24.9,30.27,SE,129,0.0,0.0,93,0.00,CLR,FEW,0.00,WeatherDisplay:10.37,2013-01-08 09:59:00,
2013-01-08 04:04:00,26.7,24.9,30.27,SE,129,0.0,0.0,93,0.00,CLR,FEW,0.00,WeatherDisplay:10.37,2013-01-08 10:04:00,
2013-01-08 04:09:00,26.7,24.9,30.27,SE,129,0.0,0.0,93,0.00,CLR,FEW,0.00,WeatherDisplay:10.37,2013-01-08 10:09:00,
2013-01-08 04:14:00,26.8,24.8,30.27,SE,129,0.0,0.0,92,0.00,CLR,FEW,0.00,WeatherDisplay:10.37,2013-01-08 10:14:00,
2013-01-08 04:19:00,26.7,24.7,30.27,SE,129,0.0,0.0,92,0.00,CLR,FEW,0.00,WeatherDisplay:10.37,2013-01-08 10:19:00,
2013-01-08 04:24:00,26.6,24.6,30.27,SE,129,0.0,0.0,92,0.00,CLR,FEW,0.00,WeatherDisplay:10.37,2013-01-08 10:24:00,
2013-01-08 04:29:00,26.5,24.5,30.27,SE,129,0.0,0.0,92,0.00,CLR,FEW,0.00,WeatherDisplay:10.37,2013-01-08 10:29:00,
2013-01-08 04:34:00,26.4,24.4,30.27,SE,129,0.0,0.0,92,0.00,CLR,FEW,0.00,WeatherDisplay:10.37,2013-01-08 10:34:00,
2013-01-08 04:39:00,26.3,24.3,30.27,SE,129,0.0,0.0,92,0.00,CLR,FEW,0.00,WeatherDisplay:10.37,2013-01-08 10:39:00,
2013-01-08 04:44:00,26.2,24.2,30.26,SE,129,0.0,0.0,92,0.00,CLR,FEW,0.00,WeatherDisplay:10.37,2013-01-08 10:44:00,
2013-01-08 04:49:00,26.1,24.1,30.26,SE,129,0.0,0.0,92,0.00,CLR,FEW,0.00,WeatherDisplay:10.37,2013-01-08 10:49:00,
2013-01-08 04:54:00,26.1,24.1,30.27,SE,129,0.0,0.0,92,0.00,CLR,FEW,0.00,WeatherDisplay:10.37,2013-01-08 10:54:00,
2013-01-08 04:59:00,26.1,24.1,30.27,SE,129,0.0,0.0,92,0.00,CLR,FEW,0.00,WeatherDisplay:10.37,2013-01-08 10:59:00,
2013-01-08 05:04:00,26.2,24.2,30.27,SE,129,0.0,0.0,92,0.00,CLR,FEW,0.00,WeatherDisplay:10.37,2013-01-08 11:04:00,
2013-01-08 05:09:00,26.2,24.2,30.27,SE,129,0.0,0.0,92,0.00,CLR,FEW,0.00,WeatherDisplay:10.37,2013-01-08 11:09:00,
2013-01-08 05:14:00,26.4,24.4,30.28,SE,129,0.0,0.0,92,0.00,CLR,FEW,0.00,WeatherDisplay:10.37,2013-01-08 11:14:00,
2013-01-08 05:19:00,26.4,24.4,30.28,SE,129,0.0,0.0,92,0.00,CLR,FEW,0.00,WeatherDisplay:10.37,2013-01-08 11:19:00,
2013-01-08 05:24:00,26.5,24.5,30.28,SE,129,0.0,0.0,92,0.00,CLR,FEW,0.00,WeatherDisplay:10.37,2013-01-08 11:24:00,
2013-01-08 05:29:00,26.5,24.5,30.28,SE,129,0.0,0.0,92,0.00,CLR,FEW,0.00,WeatherDisplay:10.37,2013-01-08 11:29:00,
2013-01-08 05:34:00,26.5,24.5,30.28,SE,129,0.0,0.0,92,0.00,CLR,FEW,0.00,WeatherDisplay:10.37,2013-01-08 11:34:00,
2013-01-08 05:39:00,26.4,24.4,30.29,SE,129,0.0,0.0,92,0.00,CLR,FEW,0.00,WeatherDisplay:10.37,2013-01-08 11:39:00,
2013-01-08 05:44:00,26.4,24.4,30.29,SE,129,0.0,0.0,92,0.00,CLR,FEW,0.00,WeatherDisplay:10.37,2013-01-08 11:44:00,
2013-01-08 05:49:00,26.6,24.8,30.29,SE,129,0.0,0.4,93,0.00,CLR,FEW,0.00,WeatherDisplay:10.37,2013-01-08 11:49:00,
2013-01-08 05:54:00,26.6,24.6,30.29,SE,129,0.0,0.0,92,0.00,CLR,FEW,0.00,WeatherDisplay:10.37,2013-01-08 11:54:00,
2013-01-08 05:59:00,26.5,24.5,30.30,SE,129,0.0,0.0,92,0.00,CLR,FEW,0.00,WeatherDisplay:10.37,2013-01-08 11:59:00,
2013-01-08 06:04:00,26.6,24.8,30.30,SE,129,1.1,0.0,93,0.00,CLR,FEW,0.00,WeatherDisplay:10.37,2013-01-08 12:04:00,
2013-01-08 06:09:00,26.7,25.2,30.30,SE,129,0.0,0.0,94,0.00,CLR,FEW,0.00,WeatherDisplay:10.37,2013-01-08 12:09:00,
2013-01-08 06:14:00,26.7,24.9,30.30,SE,129,0.0,0.0,93,0.00,CLR,FEW,0.00,WeatherDisplay:10.37,2013-01-08 12:14:00,
2013-01-08 06:19:00,26.7,25.2,30.30,SE,129,0.0,0.0,94,0.00,CLR,FEW,0.00,WeatherDisplay:10.37,2013-01-08 12:19:00,
2013-01-08 06:24:00,26.7,25.2,30.31,SE,129,0.0,0.0,94,0.00,CLR,FEW,0.00,WeatherDisplay:10.37,2013-01-08 12:24:00,
2013-01-08 06:29:00,26.7,25.2,30.31,SE,129,1.1,0.0,94,0.00,CLR,FEW,0.00,WeatherDisplay:10.37,2013-01-08 12:29:00,
2013-01-08 06:34:00,26.5,24.8,30.31,SE,129,1.1,0.0,93,0.00,CLR,FEW,0.00,WeatherDisplay:10.37,2013-01-08 12:34:00,
2013-01-08 06:39:00,26.3,24.6,30.31,SE,129,0.0,0.0,93,0.00,CLR,FEW,0.00,WeatherDisplay:10.37,2013-01-08 12:39:00,
2013-01-08 06:44:00,26.0,24.3,30.31,SE,129,2.3,0.0,93,0.00,CLR,FEW,0.00,WeatherDisplay:10.37,2013-01-08 12:44:00,
2013-01-08 06:49:00,25.8,24.1,30.31,SE,129,0.0,0.0,93,0.00,CLR,FEW,0.00,WeatherDisplay:10.37,2013-01-08 12:49:00,
2013-01-08 06:54:00,25.7,24.0,30.32,SE,129,0.0,0.0,93,0.00,CLR,FEW,0.00,WeatherDisplay:10.37,2013-01-08 12:54:00,
2013-01-08 06:59:00,25.8,24.3,30.32,SE,129,1.1,1.1,94,0.00,CLR,FEW,0.00,WeatherDisplay:10.37,2013-01-08 12:59:00,
2013-01-08 07:04:00,25.9,24.4,30.32,SE,129,0.0,0.0,94,0.00,CLR,FEW,0.00,WeatherDisplay:10.37,2013-01-08 13:04:00,
2013-01-08 07:09:00,25.9,24.2,30.32,SE,129,1.1,1.1,93,0.00,CLR,FEW,0.00,WeatherDisplay:10.37,2013-01-08 13:09:00,
2013-01-08 07:14:00,26.0,24.5,30.33,SE,129,0.0,0.0,94,0.00,CLR,FEW,0.00,WeatherDisplay:10.37,2013-01-08 13:14:00,
2013-01-08 07:19:00,26.0,24.3,30.32,SE,129,0.0,0.0,93,0.00,CLR,FEW,0.00,WeatherDisplay:10.37,2013-01-08 13:19:00,
2013-01-08 07:24:00,26.0,24.3,30.32,SE,129,1.1,1.1,93,0.00,CLR,FEW,0.00,WeatherDisplay:10.37,2013-01-08 13:24:00,
2013-01-08 07:29:00,26.0,24.3,30.32,SE,129,0.0,0.0,93,0.00,CLR,FEW,0.00,WeatherDisplay:10.37,2013-01-08 13:29:00,
2013-01-08 07:34:00,26.0,24.3,30.32,SE,129,0.0,0.0,93,0.00,CLR,FEW,0.00,WeatherDisplay:10.37,2013-01-08 13:34:00,
2013-01-08 07:39:00,26.0,24.3,30.33,SE,129,0.0,0.0,93,0.00,CLR,FEW,0.00,WeatherDisplay:10.37,2013-01-08 13:39:00,
2013-01-08 07:44:00,26.0,24.3,30.33,SE,129,0.0,0.0,93,0.00,CLR,FEW,0.00,WeatherDisplay:10.37,2013-01-08 13:44:00,
2013-01-08 07:49:00,26.2,24.5,30.33,SE,129,0.0,0.1,93,0.00,CLR,FEW,0.00,WeatherDisplay:10.37,2013-01-08 13:49:00,
2013-01-08 07:54:00,26.4,24.7,30.32,SE,129,0.0,0.0,93,0.00,CLR,FEW,0.00,WeatherDisplay:10.37,2013-01-08 13:54:00,
2013-01-08 08:00:00,26.7,25.2,30.33,SE,129,0.0,0.0,94,0.00,CLR,FEW,0.00,WeatherDisplay:10.37,2013-01-08 14:00:00,
2013-01-08 08:05:00,27.1,25.6,30.33,SE,129,0.0,0.0,94,0.00,CLR,FEW,0.00,WeatherDisplay:10.37,2013-01-08 14:05:00,
2013-01-08 08:10:00,27.5,26.0,30.33,SE,129,0.0,0.0,94,0.00,CLR,FEW,0.00,WeatherDisplay:10.37,2013-01-08 14:10:00,
2013-01-08 08:15:00,27.9,26.4,30.33,SE,129,1.1,1.1,94,0.00,CLR,FEW,0.00,WeatherDisplay:10.37,2013-01-08 14:15:00,
2013-01-08 08:20:00,28.3,26.8,30.33,SE,127,2.3,2.3,94,0.00,CLR,FEW,0.00,WeatherDisplay:10.37,2013-01-08 14:20:00,
2013-01-08 08:25:00,28.8,27.3,30.33,ENE,66,1.1,1.1,94,0.00,CLR,FEW,0.00,WeatherDisplay:10.37,2013-01-08 14:25:00,
2013-01-08 08:30:00,29.3,27.8,30.34,ENE,66,2.3,2.3,94,0.00,CLR,FEW,0.00,WeatherDisplay:10.37,2013-01-08 14:30:00,
2013-01-08 08:35:00,29.8,28.3,30.34,ENE,66,0.0,0.0,94,0.00,CLR,FEW,0.00,WeatherDisplay:10.37,2013-01-08 14:35:00,
2013-01-08 08:40:00,30.3,28.8,30.34,ENE,66,2.3,2.3,94,0.00,CLR,FEW,0.00,WeatherDisplay:10.37,2013-01-08 14:40:00,
2013-01-08 08:45:00,31.0,29.7,30.34,ENE,66,2.3,2.3,95,0.00,CLR,FEW,0.00,WeatherDisplay:10.37,2013-01-08 14:45:00,
2013-01-08 08:50:00,31.5,30.0,30.35,ENE,66,2.3,2.3,94,0.00,CLR,FEW,0.00,WeatherDisplay:10.37,2013-01-08 14:50:00,
2013-01-08 08:55:00,32.0,30.7,30.35,ENE,65,3.5,3.5,95,0.00,CLR,FEW,0.00,WeatherDisplay:10.37,2013-01-08 14:55:00,
2013-01-08 09:00:00,32.6,31.1,30.35,NE,55,4.6,4.6,94,0.00,CLR,FEW,0.00,WeatherDisplay:10.37,2013-01-08 15:00:00,
2013-01-08 09:05:00,33.2,31.7,30.35,ENE,59,2.3,2.3,94,0.00,CLR,FEW,0.00,WeatherDisplay:10.37,2013-01-08 15:05:00,
2013-01-08 09:10:00,33.5,31.7,30.35,ENE,59,2.3,2.3,93,0.00,CLR,FEW,0.00,WeatherDisplay:10.37,2013-01-08 15:10:00,
2013-01-08 09:15:00,33.8,32.0,30.35,ENE,59,2.3,2.3,93,0.00,CLR,FEW,0.00,WeatherDisplay:10.37,2013-01-08 15:15:00,
2013-01-08 09:20:00,34.1,32.0,30.35,ENE,59,2.3,2.3,92,0.00,CLR,FEW,0.00,WeatherDisplay:10.37,2013-01-08 15:20:00,
2013-01-08 09:25:00,34.3,32.2,30.35,ENE,59,2.1,2.1,92,0.00,CLR,FEW,0.00,WeatherDisplay:10.37,2013-01-08 15:25:00,
2013-01-08 09:30:00,34.6,32.5,30.35,ENE,59,2.3,2.3,92,0.00,CLR,FEW,0.00,WeatherDisplay:10.37,2013-01-08 15:30:00,
2013-01-08 09:35:00,35.3,33.2,30.35,ENE,59,2.3,2.3,92,0.00,CLR,FEW,0.00,WeatherDisplay:10.37,2013-01-08 15:35:00,
2013-01-08 09:40:00,36.2,34.4,30.34,ENE,59,2.3,2.3,93,0.00,CLR,FEW,0.00,WeatherDisplay:10.37,2013-01-08 15:40:00,
2013-01-08 09:45:00,37.3,34.9,30.34,ENE,59,3.5,3.5,91,0.00,CLR,FEW,0.00,WeatherDisplay:10.37,2013-01-08 15:45:00,
2013-01-08 09:50:00,38.4,35.4,30.34,ENE,59,2.3,2.3,89,0.00,CLR,FEW,0.00,WeatherDisplay:10.37,2013-01-08 15:50:00,
2013-01-08 09:55:00,39.4,35.6,30.34,ENE,59,2.3,2.3,86,0.00,CLR,FEW,0.00,WeatherDisplay:10.37,2013-01-08 15:55:00,
2013-01-08 10:00:00,40.5,36.3,30.33,ENE,72,6.9,6.9,85,0.00,CLR,FEW,0.00,WeatherDisplay:10.37,2013-01-08 16:00:00,
2013-01-08 10:05:00,41.7,36.9,30.33,East,101,2.3,2.3,83,0.00,CLR,FEW,0.00,WeatherDisplay:10.37,2013-01-08 16:05:00,
2013-01-08 10:10:00,42.9,37.5,30.33,East,101,1.1,0.0,81,0.00,CLR,FEW,0.00,WeatherDisplay:10.37,2013-01-08 16:10:00,
2013-01-08 10:15:00,44.2,38.4,30.33,North,9,1.1,0.0,80,0.00,CLR,FEW,0.00,WeatherDisplay:10.37,2013-01-08 16:15:00,
2013-01-08 10:20:00,45.2,38.1,30.33,NE,41,4.6,4.6,76,0.00,CLR,FEW,0.00,WeatherDisplay:10.37,2013-01-08 16:20:00,
2013-01-08 10:25:00,46.1,38.3,30.32,SW,221,0.0,0.1,74,0.00,CLR,FEW,0.00,WeatherDisplay:10.37,2013-01-08 16:25:00,
2013-01-08 10:30:00,47.7,38.8,30.32,SE,125,4.6,4.6,71,0.00,CLR,FEW,0.00,WeatherDisplay:10.37,2013-01-08 16:30:00,
2013-01-08 10:35:00,49.3,39.2,30.32,West,271,6.9,6.9,68,0.00,CLR,FEW,0.00,WeatherDisplay:10.37,2013-01-08 16:35:00,
2013-01-08 10:40:00,50.2,38.5,30.31,South,169,8.1,8.1,64,0.00,CLR,FEW,0.00,WeatherDisplay:10.37,2013-01-08 16:40:00,
2013-01-08 10:45:00,50.8,38.7,30.31,SSW,195,8.1,8.1,63,0.00,CLR,FEW,0.00,WeatherDisplay:10.37,2013-01-08 16:45:00,
2013-01-08 10:50:00,51.3,39.1,30.31,WSW,257,3.5,0.0,63,0.00,CLR,FEW,0.00,WeatherDisplay:10.37,2013-01-08 16:50:00,
2013-01-08 10:55:00,51.7,38.7,30.31,South,189,1.1,1.1,61,0.00,CLR,FEW,0.00,WeatherDisplay:10.37,2013-01-08 16:55:00,
2013-01-08 11:00:00,52.0,38.5,30.31,SSE,165,6.9,6.9,60,0.00,CLR,FEW,0.00,WeatherDisplay:10.37,2013-01-08 17:00:00,
2013-01-08 11:05:00,52.2,38.3,30.30,SW,223,6.9,6.9,59,0.00,CLR,FEW,0.00,WeatherDisplay:10.37,2013-01-08 17:05:00,
2013-01-08 11:10:00,52.5,39.4,30.30,SSW,194,3.5,3.5,61,0.00,CLR,FEW,0.00,WeatherDisplay:10.37,2013-01-08 17:10:00,
2013-01-08 11:15:00,53.0,38.6,30.30,West,260,5.8,5.8,58,0.00,CLR,FEW,0.00,WeatherDisplay:10.37,2013-01-08 17:15:00,
2013-01-08 11:20:00,53.4,39.0,30.30,SW,227,8.1,8.1,58,0.00,FEW,,0.00,WeatherDisplay:10.37,2013-01-08 17:20:00,
2013-01-08 11:25:00,53.9,39.5,30.30,West,276,3.5,3.5,58,0.00,FEW,,0.00,WeatherDisplay:10.37,2013-01-08 17:25:00,
2013-01-08 11:30:00,54.3,39.4,30.30,West,281,3.5,3.5,57,0.00,FEW,,0.00,WeatherDisplay:10.37,2013-01-08 17:30:00,
2013-01-08 11:35:00,54.4,38.6,30.30,SW,229,6.9,6.9,55,0.00,FEW,,0.00,WeatherDisplay:10.37,2013-01-08 17:35:00,
2013-01-08 11:40:00,54.4,39.0,30.30,WSW,252,6.9,6.9,56,0.00,FEW,,0.00,WeatherDisplay:10.37,2013-01-08 17:40:00,
2013-01-08 11:45:00,54.4,38.6,30.29,NW,304,6.9,6.9,55,0.00,FEW,,0.00,WeatherDisplay:10.37,2013-01-08 17:45:00,
2013-01-08 11:50:00,54.4,38.1,30.29,West,265,8.1,8.1,54,0.00,FEW,,0.00,WeatherDisplay:10.37,2013-01-08 17:50:00,
2013-01-08 11:55:00,54.3,38.0,30.29,SSE,163,11.5,11.5,54,0.00,FEW,,0.00,WeatherDisplay:10.37,2013-01-08 17:55:00,
2013-01-08 12:00:00,54.3,38.5,30.28,WSW,246,5.8,5.8,55,0.00,FEW,,0.00,WeatherDisplay:10.37,2013-01-08 18:00:00,
2013-01-08 12:05:00,54.7,38.4,30.28,South,185,4.6,4.6,54,0.00,FEW,,0.00,WeatherDisplay:10.37,2013-01-08 18:05:00,
2013-01-08 12:10:00,55.1,38.3,30.27,SW,219,3.5,3.5,53,0.00,FEW,,0.00,WeatherDisplay:10.37,2013-01-08 18:10:00,
2013-01-08 12:15:00,55.2,38.4,30.27,SSW,200,6.9,6.9,53,0.00,FEW,,0.00,WeatherDisplay:10.37,2013-01-08 18:15:00,
2013-01-08 12:20:00,55.4,38.5,30.27,SW,218,8.1,8.1,53,0.00,SCT,FEW,0.00,WeatherDisplay:10.37,2013-01-08 18:20:00,
2013-01-08 12:25:00,55.4,38.1,30.27,West,261,4.6,4.6,52,0.00,SCT,FEW,0.00,WeatherDisplay:10.37,2013-01-08 18:25:00,
2013-01-08 12:30:00,55.6,38.7,30.27,SSE,168,9.2,9.2,53,0.00,SCT,FEW,0.00,WeatherDisplay:10.37,2013-01-08 18:30:00,
2013-01-08 12:35:00,55.8,37.9,30.26,SSE,155,6.9,6.9,51,0.00,SCT,FEW,0.00,WeatherDisplay:10.37,2013-01-08 18:35:00,
2013-01-08 12:40:00,56.0,38.6,30.26,SSW,211,3.5,3.5,52,0.00,SCT,FEW,0.00,WeatherDisplay:10.37,2013-01-08 18:40:00,
2013-01-08 12:45:00,56.6,38.7,30.26,South,179,3.5,3.5,51,0.00,SCT,FEW,0.00,WeatherDisplay:10.37,2013-01-08 18:45:00,
2013-01-08 12:50:00,56.8,38.3,30.25,SSE,154,3.5,3.5,50,0.00,SCT,FEW,0.00,WeatherDisplay:10.37,2013-01-08 18:50:00,
2013-01-08 12:55:00,56.9,38.9,30.25,SW,234,4.6,4.6,51,0.00,SCT,FEW,0.00,WeatherDisplay:10.37,2013-01-08 18:55:00,
2013-01-08 13:00:00,56.9,37.9,30.25,SW,227,11.5,11.5,49,0.00,SCT,FEW,0.00,WeatherDisplay:10.37,2013-01-08 19:00:00,
2013-01-08 13:05:00,57.0,38.0,30.26,SSE,161,5.8,5.8,49,0.00,SCT,FEW,0.00,WeatherDisplay:10.37,2013-01-08 19:05:00,
2013-01-08 13:10:00,57.6,39.6,30.25,WSW,242,4.6,4.6,51,0.00,SCT,FEW,0.00,WeatherDisplay:10.37,2013-01-08 19:10:00,
2013-01-08 13:15:00,57.8,38.8,30.25,SW,225,3.5,3.5,49,0.00,SCT,FEW,0.00,WeatherDisplay:10.37,2013-01-08 19:15:00,
2013-01-08 13:20:00,58.1,38.0,30.25,ESE,113,6.9,6.9,47,0.00,SCT,FEW,0.00,WeatherDisplay:10.37,2013-01-08 19:20:00,
2013-01-08 13:25:00,57.9,37.8,30.25,SSE,160,4.6,4.6,47,0.00,SCT,FEW,0.00,WeatherDisplay:10.37,2013-01-08 19:25:00,
2013-01-08 13:30:00,57.9,37.8,30.25,SSE,168,3.5,3.5,47,0.00,SCT,FEW,0.00,WeatherDisplay:10.37,2013-01-08 19:30:00,
2013-01-08 13:35:00,58.3,38.1,30.24,SSW,194,5.8,5.8,47,0.00,SCT,FEW,0.00,WeatherDisplay:10.37,2013-01-08 19:35:00,
2013-01-08 13:40:00,58.4,37.7,30.24,WNW,292,8.1,8.1,46,0.00,SCT,FEW,0.00,WeatherDisplay:10.37,2013-01-08 19:40:00,
2013-01-08 13:45:00,58.7,38.0,30.24,WSW,253,8.1,8.1,46,0.00,SCT,FEW,0.00,WeatherDisplay:10.37,2013-01-08 19:45:00,
2013-01-08 13:50:00,58.8,38.1,30.24,SW,236,1.1,1.6,46,0.00,SCT,FEW,0.00,WeatherDisplay:10.37,2013-01-08 19:50:00,
2013-01-08 13:55:00,59.0,37.7,30.24,SE,143,5.8,5.8,45,0.00,SCT,FEW,0.00,WeatherDisplay:10.37,2013-01-08 19:55:00,
2013-01-08 14:00:00,59.0,37.7,30.24,SE,144,7.5,7.5,45,0.00,SCT,FEW,0.00,WeatherDisplay:10.37,2013-01-08 20:00:00,
2013-01-08 14:05:00,58.9,37.6,30.23,SSE,150,3.5,3.5,45,0.00,SCT,FEW,0.00,WeatherDisplay:10.37,2013-01-08 20:05:00,
2013-01-08 14:10:00,59.1,37.8,30.23,SSE,161,6.9,6.9,45,0.00,SCT,FEW,0.00,WeatherDisplay:10.37,2013-01-08 20:10:00,
2013-01-08 14:16:00,59.4,37.5,30.23,SW,218,2.3,2.3,44,0.00,SCT,FEW,0.00,WeatherDisplay:10.37,2013-01-08 20:16:00,
2013-01-08 14:21:00,59.7,38.3,30.23,SSW,202,3.5,3.5,45,0.00,CLR,FEW,0.00,WeatherDisplay:10.37,2013-01-08 20:21:00,
2013-01-08 14:26:00,59.9,37.3,30.23,SW,224,4.6,4.6,43,0.00,CLR,FEW,0.00,WeatherDisplay:10.37,2013-01-08 20:26:00,
2013-01-08 14:31:00,60.1,36.9,30.23,South,178,5.8,5.8,42,0.00,CLR,FEW,0.00,WeatherDisplay:10.37,2013-01-08 20:31:00,
2013-01-08 14:36:00,60.3,37.7,30.23,SE,137,5.8,5.8,43,0.00,CLR,FEW,0.00,WeatherDisplay:10.37,2013-01-08 20:36:00,
2013-01-08 14:41:00,60.3,38.3,30.23,SSW,194,0.0,0.0,44,0.00,CLR,FEW,0.00,WeatherDisplay:10.37,2013-01-08 20:41:00,
2013-01-08 14:46:00,60.3,37.7,30.23,SW,223,0.0,0.0,43,0.00,CLR,FEW,0.00,WeatherDisplay:10.37,2013-01-08 20:46:00,
2013-01-08 14:51:00,60.5,36.7,30.24,SSW,213,5.8,5.8,41,0.00,CLR,FEW,0.00,WeatherDisplay:10.37,2013-01-08 20:51:00,
2013-01-08 14:56:00,60.3,35.9,30.24,West,261,3.5,3.5,40,0.00,CLR,FEW,0.00,WeatherDisplay:10.37,2013-01-08 20:56:00,
2013-01-08 15:01:00,60.1,35.7,30.24,SSE,163,8.1,8.1,40,0.00,CLR,FEW,0.00,WeatherDisplay:10.37,2013-01-08 21:01:00,
2013-01-08 15:06:00,59.8,35.4,30.24,SE,142,5.8,5.8,40,0.00,CLR,FEW,0.00,WeatherDisplay:10.37,2013-01-08 21:06:00,
2013-01-08 15:11:00,59.4,35.7,30.24,SSW,211,2.3,2.3,41,0.00,CLR,FEW,0.00,WeatherDisplay:10.37,2013-01-08 21:11:00,
2013-01-08 15:16:00,59.1,36.0,30.24,SSW,196,6.9,6.9,42,0.00,CLR,FEW,0.00,WeatherDisplay:10.37,2013-01-08 21:16:00,
2013-01-08 15:21:00,58.8,35.7,30.24,South,191,4.6,4.6,42,0.00,,FEW,0.00,WeatherDisplay:10.37,2013-01-08 21:21:00,
2013-01-08 15:26:00,58.4,36.0,30.24,SSW,195,4.6,4.6,43,0.00,,FEW,0.00,WeatherDisplay:10.37,2013-01-08 21:26:00,
2013-01-08 15:31:00,58.2,36.9,30.23,South,188,0.0,0.0,45,0.00,,FEW,0.00,WeatherDisplay:10.37,2013-01-08 21:31:00,
2013-01-08 15:36:00,58.0,35.6,30.23,South,188,0.0,0.0,43,0.00,,FEW,0.00,WeatherDisplay:10.37,2013-01-08 21:36:00,
2013-01-08 15:41:00,57.8,36.0,30.23,South,184,1.1,1.1,44,0.00,,FEW,0.00,WeatherDisplay:10.37,2013-01-08 21:41:00,
2013-01-08 15:46:00,57.6,36.4,30.23,South,188,3.5,3.5,45,0.00,,FEW,0.00,WeatherDisplay:10.37,2013-01-08 21:46:00,
2013-01-08 15:51:00,57.5,36.9,30.22,SSW,194,0.0,0.0,46,0.00,,FEW,0.00,WeatherDisplay:10.37,2013-01-08 21:51:00,
2013-01-08 15:56:00,57.2,36.6,30.22,SSW,194,0.0,0.0,46,0.00,,FEW,0.00,WeatherDisplay:10.37,2013-01-08 21:56:00,
2013-01-08 16:01:00,56.9,36.9,30.23,SSW,200,0.0,0.3,47,0.00,CLR,FEW,0.00,WeatherDisplay:10.37,2013-01-08 22:01:00,
2013-01-08 16:06:00,56.8,36.8,30.23,South,190,0.0,0.0,47,0.00,CLR,FEW,0.00,WeatherDisplay:10.37,2013-01-08 22:06:00,
2013-01-08 16:11:00,56.5,37.0,30.24,South,190,0.0,0.0,48,0.00,CLR,FEW,0.00,WeatherDisplay:10.37,2013-01-08 22:11:00,
2013-01-08 16:16:00,56.3,36.8,30.23,South,182,1.1,1.1,48,0.00,CLR,FEW,0.00,WeatherDisplay:10.37,2013-01-08 22:16:00,
2013-01-08 16:21:00,56.0,36.6,30.23,South,174,4.6,4.6,48,0.00,CLR,FEW,0.00,WeatherDisplay:10.37,2013-01-08 22:21:00,
2013-01-08 16:26:00,55.9,36.5,30.23,South,180,1.1,1.1,48,0.00,CLR,FEW,0.00,WeatherDisplay:10.37,2013-01-08 22:26:00,
2013-01-08 16:31:00,55.7,36.3,30.23,SSW,209,0.0,0.0,48,0.00,CLR,FEW,0.00,WeatherDisplay:10.37,2013-01-08 22:31:00,
2013-01-08 16:36:00,55.4,36.5,30.23,SSW,209,0.0,0.0,49,0.00,CLR,FEW,0.00,WeatherDisplay:10.37,2013-01-08 22:36:00,
2013-01-08 16:41:00,55.1,36.3,30.23,SSW,209,1.1,1.1,49,0.00,CLR,FEW,0.00,WeatherDisplay:10.37,2013-01-08 22:41:00,
2013-01-08 16:46:00,54.8,36.0,30.23,SSW,209,0.0,0.0,49,0.00,CLR,FEW,0.00,WeatherDisplay:10.37,2013-01-08 22:46:00,
2013-01-08 16:51:00,54.4,36.1,30.23,SSW,209,0.0,0.0,50,0.00,CLR,FEW,0.00,WeatherDisplay:10.37,2013-01-08 22:51:00,
2013-01-08 16:56:00,54.0,36.3,30.23,SSW,209,0.0,0.0,51,0.00,CLR,FEW,0.00,WeatherDisplay:10.37,2013-01-08 22:56:00,
2013-01-08 17:01:00,53.6,35.9,30.24,SSW,209,0.0,0.0,51,0.00,CLR,FEW,0.00,WeatherDisplay:10.37,2013-01-08 23:01:00,
2013-01-08 17:06:00,53.3,35.6,30.24,SSW,209,0.0,0.0,51,0.00,CLR,FEW,0.00,WeatherDisplay:10.37,2013-01-08 23:06:00,
2013-01-08 17:11:00,53.0,35.3,30.24,SSW,209,0.0,0.0,51,0.00,CLR,FEW,0.00,WeatherDisplay:10.37,2013-01-08 23:11:00,
2013-01-08 17:16:00,52.8,36.1,30.24,SSW,209,0.0,0.0,53,0.00,CLR,FEW,0.00,WeatherDisplay:10.37,2013-01-08 23:16:00,
2013-01-08 17:21:00,52.5,35.8,30.24,SSW,209,0.0,0.0,53,0.00,CLR,FEW,0.00,WeatherDisplay:10.37,2013-01-08 23:21:00,
2013-01-08 17:26:00,52.2,36.0,30.25,SSW,209,0.0,0.0,54,0.00,CLR,FEW,0.00,WeatherDisplay:10.37,2013-01-08 23:26:00,
2013-01-08 17:31:00,51.9,35.8,30.25,SSW,209,0.0,0.0,54,0.00,CLR,FEW,0.00,WeatherDisplay:10.37,2013-01-08 23:31:00,
2013-01-08 17:36:00,51.7,36.0,30.25,SSW,209,0.0,0.0,55,0.00,CLR,FEW,0.00,WeatherDisplay:10.37,2013-01-08 23:36:00,
2013-01-08 17:41:00,51.5,35.9,30.24,SSW,209,0.0,0.0,55,0.00,CLR,FEW,0.00,WeatherDisplay:10.37,2013-01-08 23:41:00,
2013-01-08 17:46:00,51.2,36.5,30.24,SSW,209,0.0,0.0,57,0.00,CLR,FEW,0.00,WeatherDisplay:10.37,2013-01-08 23:46:00,
2013-01-08 17:51:00,50.7,36.9,30.24,SSW,209,0.0,0.0,59,0.00,CLR,FEW,0.00,WeatherDisplay:10.37,2013-01-08 23:51:00,
2013-01-08 17:56:00,50.3,36.9,30.24,SSW,209,0.0,0.0,60,0.00,CLR,FEW,0.00,WeatherDisplay:10.37,2013-01-08 23:56:00,
2013-01-08 18:01:00,49.8,36.9,30.24,SSW,209,0.0,0.0,61,0.00,CLR,FEW,0.00,WeatherDisplay:10.37,2013-01-09 00:01:00,
2013-01-08 18:06:00,49.4,36.5,30.24,SSW,209,0.0,0.0,61,0.00,CLR,FEW,0.00,WeatherDisplay:10.37,2013-01-09 00:06:00,
2013-01-08 18:11:00,49.0,36.5,30.24,SSW,209,0.0,0.0,62,0.00,CLR,FEW,0.00,WeatherDisplay:10.37,2013-01-09 00:11:00,
2013-01-08 18:16:00,48.6,36.2,30.24,SSW,209,0.0,0.0,62,0.00,CLR,FEW,0.00,WeatherDisplay:10.37,2013-01-09 00:16:00,
2013-01-08 18:21:00,48.3,36.3,30.24,SSW,209,0.0,0.0,63,0.00,CLR,FEW,0.00,WeatherDisplay:10.37,2013-01-09 00:21:00,
2013-01-08 18:26:00,48.0,36.4,30.24,SSW,209,0.0,0.0,64,0.00,CLR,FEW,0.00,WeatherDisplay:10.37,2013-01-09 00:26:00,
2013-01-08 18:31:00,47.8,36.2,30.24,SSW,209,0.0,0.0,64,0.00,CLR,FEW,0.00,WeatherDisplay:10.37,2013-01-09 00:31:00,
2013-01-08 18:36:00,47.5,36.3,30.24,SSW,209,0.0,0.0,65,0.00,CLR,FEW,0.00,WeatherDisplay:10.37,2013-01-09 00:36:00,
2013-01-08 18:41:00,47.3,36.5,30.24,SSW,209,0.0,0.0,66,0.00,CLR,FEW,0.00,WeatherDisplay:10.37,2013-01-09 00:41:00,
2013-01-08 18:46:00,47.0,36.2,30.24,SSW,209,0.0,0.0,66,0.00,CLR,FEW,0.00,WeatherDisplay:10.37,2013-01-09 00:46:00,
2013-01-08 18:51:00,46.8,36.0,30.24,SSW,209,0.0,0.0,66,0.00,CLR,FEW,0.00,WeatherDisplay:10.37,2013-01-09 00:51:00,
2013-01-08 18:56:00,46.5,36.1,30.24,SSW,209,0.0,0.0,67,0.00,CLR,FEW,0.00,WeatherDisplay:10.37,2013-01-09 00:56:00,
2013-01-08 19:01:00,46.1,36.1,30.24,SSW,209,0.0,0.0,68,0.00,CLR,FEW,0.00,WeatherDisplay:10.37,2013-01-09 01:01:00,
2013-01-08 19:06:00,45.8,36.2,30.23,SSW,209,0.0,0.0,69,0.00,CLR,FEW,0.00,WeatherDisplay:10.37,2013-01-09 01:06:00,
2013-01-08 19:11:00,45.6,36.0,30.23,SSW,209,0.0,0.0,69,0.00,CLR,FEW,0.00,WeatherDisplay:10.37,2013-01-09 01:11:00,
2013-01-08 19:16:00,45.4,36.2,30.23,SSW,209,0.0,0.0,70,0.00,CLR,FEW,0.00,WeatherDisplay:10.37,2013-01-09 01:16:00,
2013-01-08 19:22:00,45.1,36.3,30.23,SSW,209,0.0,0.0,71,0.00,CLR,FEW,0.00,WeatherDisplay:10.37,2013-01-09 01:22:00,
2013-01-08 19:27:00,44.8,36.3,30.23,SSW,209,0.0,0.0,72,0.00,CLR,FEW,0.00,WeatherDisplay:10.37,2013-01-09 01:27:00,
2013-01-08 19:32:00,44.6,36.5,30.23,SSW,209,0.0,0.0,73,0.00,CLR,FEW,0.00,WeatherDisplay:10.37,2013-01-09 01:32:00,
2013-01-08 19:37:00,44.5,36.4,30.23,SSW,209,0.0,0.0,73,0.00,CLR,FEW,0.00,WeatherDisplay:10.37,2013-01-09 01:37:00,
2013-01-08 19:42:00,44.3,36.2,30.23,SSW,209,0.0,0.0,73,0.00,CLR,FEW,0.00,WeatherDisplay:10.37,2013-01-09 01:42:00,
2013-01-08 19:47:00,44.2,36.1,30.24,SSW,209,0.0,0.0,73,0.00,CLR,FEW,0.00,WeatherDisplay:10.37,2013-01-09 01:47:00,
2013-01-08 19:52:00,44.1,36.0,30.24,SSW,209,0.0,0.0,73,0.00,CLR,FEW,0.00,WeatherDisplay:10.37,2013-01-09 01:52:00,
2013-01-08 19:57:00,44.0,36.2,30.24,SSW,209,0.0,0.0,74,0.00,CLR,FEW,0.00,WeatherDisplay:10.37,2013-01-09 01:57:00,
2013-01-08 20:02:00,43.8,36.0,30.24,SSW,209,0.0,0.0,74,0.00,CLR,FEW,0.00,WeatherDisplay:10.37,2013-01-09 02:02:00,
2013-01-08 20:07:00,43.7,36.0,30.24,SSW,209,0.0,0.0,74,0.00,CLR,FEW,0.00,WeatherDisplay:10.37,2013-01-09 02:07:00,
2013-01-08 20:12:00,43.6,36.2,30.24,SSW,209,0.0,0.0,75,0.00,CLR,FEW,0.00,WeatherDisplay:10.37,2013-01-09 02:12:00,
2013-01-08 20:17:00,43.4,36.0,30.24,SSW,209,0.0,0.0,75,0.00,CLR,FEW,0.00,WeatherDisplay:10.37,2013-01-09 02:17:00,
2013-01-08 20:22:00,43.4,36.0,30.24,SSW,209,0.0,0.0,75,0.00,CLR,FEW,0.00,WeatherDisplay:10.37,2013-01-09 02:22:00,
2013-01-08 20:27:00,43.4,36.3,30.24,SSW,209,0.0,0.0,76,0.00,CLR,FEW,0.00,WeatherDisplay:10.37,2013-01-09 02:27:00,
2013-01-08 20:32:00,43.3,36.2,30.24,SSW,209,0.0,0.0,76,0.00,CLR,FEW,0.00,WeatherDisplay:10.37,2013-01-09 02:32:00,
2013-01-08 20:37:00,43.1,36.0,30.23,SSW,209,0.0,0.0,76,0.00,CLR,FEW,0.00,WeatherDisplay:10.37,2013-01-09 02:37:00,
2013-01-08 20:42:00,42.9,36.2,30.24,SSW,209,0.0,0.0,77,0.00,CLR,FEW,0.00,WeatherDisplay:10.37,2013-01-09 02:42:00,
2013-01-08 20:47:00,42.9,36.2,30.24,SSW,209,0.0,0.0,77,0.00,CLR,FEW,0.00,WeatherDisplay:10.37,2013-01-09 02:47:00,
2013-01-08 20:52:00,42.7,36.0,30.24,SSW,209,0.0,0.0,77,0.00,CLR,FEW,0.00,WeatherDisplay:10.37,2013-01-09 02:52:00,
2013-01-08 20:57:00,42.6,35.9,30.24,SSW,209,0.0,0.0,77,0.00,CLR,FEW,0.00,WeatherDisplay:10.37,2013-01-09 02:57:00,
2013-01-08 21:02:00,42.4,36.0,30.24,SSW,209,0.0,0.0,78,0.00,CLR,FEW,0.00,WeatherDisplay:10.37,2013-01-09 03:02:00,
2013-01-08 21:07:00,42.3,35.9,30.24,SSW,209,0.0,0.0,78,0.00,CLR,FEW,0.00,WeatherDisplay:10.37,2013-01-09 03:07:00,
2013-01-08 21:12:00,42.2,35.8,30.24,SSW,209,0.0,0.0,78,0.00,CLR,FEW,0.00,WeatherDisplay:10.37,2013-01-09 03:12:00,
2013-01-08 21:17:00,42.1,35.7,30.24,SSW,209,0.0,0.0,78,0.00,CLR,FEW,0.00,WeatherDisplay:10.37,2013-01-09 03:17:00,
2013-01-08 21:22:00,42.0,35.6,30.24,SSW,209,0.0,0.0,78,0.00,CLR,FEW,0.00,WeatherDisplay:10.37,2013-01-09 03:22:00,
2013-01-08 21:27:00,41.9,35.5,30.24,SSW,209,0.0,0.0,78,0.00,CLR,FEW,0.00,WeatherDisplay:10.37,2013-01-09 03:27:00,
2013-01-08 21:32:00,41.8,35.8,30.23,SSW,209,0.0,0.0,79,0.00,CLR,FEW,0.00,WeatherDisplay:10.37,2013-01-09 03:32:00,
2013-01-08 21:37:00,41.8,35.8,30.23,SSW,209,0.0,0.0,79,0.00,CLR,FEW,0.00,WeatherDisplay:10.37,2013-01-09 03:37:00,
2013-01-08 21:42:00,41.8,35.8,30.23,SSW,209,0.0,0.0,79,0.00,CLR,FEW,0.00,WeatherDisplay:10.37,2013-01-09 03:42:00,
2013-01-08 21:47:00,41.7,35.7,30.24,SSW,209,0.0,0.0,79,0.00,CLR,FEW,0.00,WeatherDisplay:10.37,2013-01-09 03:47:00,
2013-01-08 21:52:00,41.6,35.6,30.24,SSW,209,0.0,0.0,79,0.00,CLR,FEW,0.00,WeatherDisplay:10.37,2013-01-09 03:52:00,
2013-01-08 21:57:00,41.5,35.5,30.24,SSW,209,0.0,0.0,79,0.00,CLR,FEW,0.00,WeatherDisplay:10.37,2013-01-09 03:57:00,
2013-01-08 22:02:00,41.4,35.4,30.25,SSW,209,0.0,0.0,79,0.00,CLR,FEW,0.00,WeatherDisplay:10.37,2013-01-09 04:02:00,
2013-01-08 22:07:00,41.3,35.6,30.25,SSW,209,0.0,0.0,80,0.00,CLR,FEW,0.00,WeatherDisplay:10.37,2013-01-09 04:07:00,
2013-01-08 22:12:00,41.1,35.4,30.25,SSW,209,0.0,0.0,80,0.00,CLR,FEW,0.00,WeatherDisplay:10.37,2013-01-09 04:12:00,
2013-01-08 22:17:00,41.1,35.4,30.25,SSW,209,0.0,0.0,80,0.00,CLR,FEW,0.00,WeatherDisplay:10.37,2013-01-09 04:17:00,
2013-01-08 22:22:00,41.0,35.3,30.25,SSW,209,0.0,0.0,80,0.00,CLR,FEW,0.00,WeatherDisplay:10.37,2013-01-09 04:22:00,
2013-01-08 22:27:00,40.8,35.1,30.25,SSW,209,0.0,0.0,80,0.00,CLR,FEW,0.00,WeatherDisplay:10.37,2013-01-09 04:27:00,
2013-01-08 22:32:00,40.8,35.4,30.25,SSW,209,0.0,0.0,81,0.00,CLR,FEW,0.00,WeatherDisplay:10.37,2013-01-09 04:32:00,
2013-01-08 22:37:00,40.8,35.4,30.25,SSW,209,0.0,0.0,81,0.00,CLR,FEW,0.00,WeatherDisplay:10.37,2013-01-09 04:37:00,
2013-01-08 22:42:00,40.8,35.4,30.25,SSW,209,0.0,0.0,81,0.00,CLR,FEW,0.00,WeatherDisplay:10.37,2013-01-09 04:42:00,
2013-01-08 22:47:00,40.9,35.5,30.25,SSW,209,0.0,0.0,81,0.00,CLR,FEW,0.00,WeatherDisplay:10.37,2013-01-09 04:47:00,
2013-01-08 22:52:00,40.8,35.4,30.25,SSW,209,0.0,0.0,81,0.00,CLR,FEW,0.00,WeatherDisplay:10.37,2013-01-09 04:52:00,
2013-01-08 22:57:00,40.8,35.4,30.26,SSW,209,0.0,0.0,81,0.00,CLR,FEW,0.00,WeatherDisplay:10.37,2013-01-09 04:57:00,
2013-01-08 23:00:00,40.7,35.6,30.26,SSW,209,0.0,0.0,82,0.00,CLR,FEW,0.00,WeatherDisplay:10.37,2013-01-09 05:00:00,
2013-01-08 23:01:00,40.7,35.3,30.26,SSW,209,0.0,0.0,81,0.00,CLR,FEW,0.00,WeatherDisplay:10.37,2013-01-09 05:01:00,
2013-01-08 23:06:00,40.6,35.2,30.26,SSW,209,0.0,0.0,81,0.00,CLR,FEW,0.00,WeatherDisplay:10.37,2013-01-09 05:06:00,
2013-01-08 23:11:00,40.7,35.6,30.26,SSW,209,0.0,0.0,82,0.00,CLR,FEW,0.00,WeatherDisplay:10.37,2013-01-09 05:11:00,
2013-01-08 23:16:00,40.7,35.6,30.26,SSW,209,0.0,0.0,82,0.00,CLR,FEW,0.00,WeatherDisplay:10.37,2013-01-09 05:16:00,
2013-01-08 23:21:00,40.6,35.2,30.26,SSW,209,0.0,0.0,81,0.00,FEW,,0.00,WeatherDisplay:10.37,2013-01-09 05:21:00,
2013-01-08 23:26:00,40.7,35.6,30.26,SSW,209,0.0,0.0,82,0.00,FEW,,0.00,WeatherDisplay:10.37,2013-01-09 05:26:00,
2013-01-08 23:31:00,40.7,35.6,30.27,SSW,209,0.0,0.0,82,0.00,FEW,,0.00,WeatherDisplay:10.37,2013-01-09 05:31:00,
2013-01-08 23:36:00,40.6,35.5,30.27,SSW,209,0.0,0.0,82,0.00,FEW,,0.00,WeatherDisplay:10.37,2013-01-09 05:36:00,
2013-01-08 23:41:00,40.6,35.5,30.27,SSW,209,0.0,0.0,82,0.00,FEW,,0.00,WeatherDisplay:10.37,2013-01-09 05:41:00,
2013-01-08 23:46:00,40.7,36.2,30.27,SSW,209,0.0,0.0,84,0.00,FEW,,0.00,WeatherDisplay:10.37,2013-01-09 05:46:00,
2013-01-08 23:51:00,40.6,35.8,30.28,SSW,209,0.0,0.0,83,0.00,FEW,,0.00,WeatherDisplay:10.37,2013-01-09 05:51:00,
2013-01-08 23:56:00,40.6,35.8,30.27,SSW,209,0.0,0.0,83,0.00,FEW,,0.00,WeatherDisplay:10.37,2013-01-09 05:56:00,